Time;durP1;ratioP1;P1;durP2;ratioP2;P2;SDS_P1;SDS_P2;PMS_P1;PMS_P2;Temp;Humidity;BMP_temperature;BMP_pressure;BME280_temperature;BME280_humidity;BME280_pressure;Samples;Min_cycle;Max_cycle;Signal;HPM_P1;HPM_P2
2022/03/24 00:02:17;;;;;;;21.35;15.90;;;;;;;;;;5110311;28;20048;-58
2022/03/24 00:05:12;;;;;;;18.63;13.25;;;;;;;;;;5109899;28;20028;-58
2022/03/24 00:11:05;;;;;;;17.42;14.05;;;;;;;;;;5074230;28;20078;-58
2022/03/24 00:16:35;;;;;;;17.20;13.27;;;;;;;;;;5088513;28;20040;-58
2022/03/24 00:19:26;;;;;;;15.75;13.20;;;;;;;;;;5088212;28;20047;-58
2022/03/24 00:24:59;;;;;;;17.00;12.70;;;;;;;;;;5088237;28;20044;-58
2022/03/24 00:30:44;;;;;;;25.85;14.25;;;;;;;;;;5064589;28;20033;-58
2022/03/24 00:36:20;;;;;;;;;;;;;;;;;;;;;
2022/03/24 00:42:02;;;;;;;21.00;15.32;;;;;;;;;;5052955;28;20514;-58
2022/03/24 00:44:32;;;;;;;21.05;17.88;;;;;;;;;;5068250;28;20025;-58
2022/03/24 00:47:35;;;;;;;21.40;17.77;;;;;;;;;;5065913;28;20102;-58
2022/03/24 00:50:12;;;;;;;33.50;21.30;;;;;;;;;;5019264;28;20091;-58
2022/03/24 00:52:41;;;;;;;25.92;20.05;;;;;;;;;;5067442;28;20037;-58
2022/03/24 00:55:51;;;;;;;24.77;18.88;;;;;;;;;;5066924;28;20033;-58
2022/03/24 00:58:23;;;;;;;25.00;21.33;;;;;;;;;;5066451;28;20139;-58
2022/03/24 01:01:04;;;;;;;33.88;24.77;;;;;;;;;;5052540;28;20064;-56
2022/03/24 01:09:36;;;;;;;23.92;18.58;;;;;;;;;;5073054;28;20024;-58
2022/03/24 01:18:12;;;;;;;26.17;18.67;;;;;;;;;;5108307;28;20027;-58
2022/03/24 01:21:23;;;;;;;30.27;18.10;;;;;;;;;;5090737;28;20028;-58
2022/03/24 01:23:53;;;;;;;22.83;15.75;;;;;;;;;;5109755;28;20093;-58
2022/03/24 01:26:47;;;;;;;17.25;14.77;;;;;;;;;;5066277;28;20044;-57
2022/03/24 01:29:28;;;;;;;19.83;15.13;;;;;;;;;;5050318;28;20634;-58
2022/03/24 01:37:54;;;;;;;20.60;15.93;;;;;;;;;;5055453;28;20499;-58
2022/03/24 01:40:39;;;;;;;19.23;14.25;;;;;;;;;;5066521;28;20518;-57
2022/03/24 01:46:26;;;;;;;18.90;15.07;;;;;;;;;;5065042;28;20522;-58
2022/03/24 01:49:17;;;;;;;22.02;15.75;;;;;;;;;;5049542;28;20024;-58
2022/03/24 01:51:55;;;;;;;;;;;;;;;;;;5067202;28;20118;-58
2022/03/24 01:54:38;;;;;;;22.85;16.58;;;;;;;;;;5066191;28;19907;-58
2022/03/24 02:00:14;;;;;;;22.38;16.13;;;;;;;;;;5026797;28;20029;-58
2022/03/24 02:03:03;;;;;;;21.98;16.83;;;;;;;;;;5026232;28;20547;-58
2022/03/24 02:06:00;;;;;;;22.95;16.17;;;;;;;;;;5108537;28;20056;-58
2022/03/24 02:15:18;;;;;;;;;;;;;;;;;;;;;
2022/03/24 02:17:58;;;;;;;18.38;14.38;;;;;;;;;;5100903;28;20028;-58
2022/03/24 02:20:33;;;;;;;20.17;14.88;;;;;;;;;;5090714;28;20024;-58
2022/03/24 02:23:09;;;;;;;18.95;13.82;;;;;;;;;;5108041;28;20024;-58
2022/03/24 02:26:00;;;;;;;20.13;14.93;;;;;;;;;;5089764;28;20040;-57
2022/03/24 02:32:11;;;;;;;19.60;13.88;;;;;;;;;;5107785;28;20055;-58
2022/03/24 02:43:25;;;;;;;18.05;14.23;;;;;;;;;;5108008;28;20382;-57
2022/03/24 02:46:24;;;;;;;16.77;13.13;;;;;;;;;;5110174;28;20040;-57
2022/03/24 02:49:42;;;;;;;;;;;;;;;;;;;;;
2022/03/24 02:52:18;;;;;;;21.58;14.02;;;;;;;;;;5093932;28;20056;-58
2022/03/24 02:54:57;;;;;;;16.25;11.82;;;;;;;;;;5111387;28;20036;-58
2022/03/24 03:00:20;;;;;;;15.27;11.95;;;;;;;;;;5111570;28;20027;-58
2022/03/24 03:03:20;;;;;;;;;;;;;;;;;;;;;
2022/03/24 03:06:13;;;;;;;17.77;11.93;;;;;;;;;;5110983;28;20056;-57
2022/03/24 03:09:05;;;;;;;16.92;13.10;;;;;;;;;;5101059;28;20105;-58
2022/03/24 03:11:47;;;;;;;;;;;;;;;;;;;;;
2022/03/24 03:14:24;;;;;;;19.75;13.52;;;;;;;;;;5111539;28;20058;-57
2022/03/24 03:17:06;;;;;;;18.95;12.18;;;;;;;;;;5111017;28;20122;-58
2022/03/24 03:20:02;;;;;;;18.55;13.32;;;;;;;;;;5072029;28;20059;-57
2022/03/24 03:22:37;;;;;;;20.20;13.30;;;;;;;;;;5089126;28;20510;-57
2022/03/24 03:25:22;;;;;;;16.17;12.02;;;;;;;;;;5088609;28;20498;-58
2022/03/24 03:28:44;;;;;;;18.30;13.90;;;;;;;;;;5071508;28;20037;-58
2022/03/24 03:31:45;;;;;;;20.25;12.00;;;;;;;;;;5028546;28;20041;-58
2022/03/24 03:34:25;;;;;;;16.30;12.77;;;;;;;;;;5017585;28;20040;-57
2022/03/24 03:37:03;;;;;;;20.25;12.60;;;;;;;;;;5028428;28;20049;-58
2022/03/24 03:39:54;;;;;;;20.65;13.65;;;;;;;;;;5010147;28;20034;-57
2022/03/24 03:42:24;;;;;;;21.10;12.77;;;;;;;;;;5059732;28;20028;-57
2022/03/24 03:45:20;;;;;;;20.60;12.82;;;;;;;;;;5070830;28;20068;-58
2022/03/24 03:48:11;;;;;;;20.70;13.77;;;;;;;;;;5063393;28;20146;-58
2022/03/24 03:51:29;;;;;;;20.08;14.40;;;;;;;;;;5068170;28;20040;-58
2022/03/24 03:54:34;;;;;;;20.30;14.57;;;;;;;;;;4992465;28;20031;-58
2022/03/24 03:57:26;;;;;;;22.42;15.10;;;;;;;;;;4949662;29;20055;-58
2022/03/24 04:00:52;;;;;;;18.80;14.23;;;;;;;;;;4950978;29;20083;-56
2022/03/24 04:03:24;;;;;;;;;;;;;;;;;;;;;
2022/03/24 04:05:54;;;;;;;20.58;14.45;;;;;;;;;;4947219;29;20046;-58
2022/03/24 04:08:20;;;;;;;;;;;;;;;;;;4960683;29;20043;-58
2022/03/24 04:11:04;;;;;;;16.48;13.52;;;;;;;;;;4969666;29;19953;-58
2022/03/24 04:16:37;;;;;;;19.40;14.02;;;;;;;;;;4965937;29;20039;-57
2022/03/24 04:19:35;;;;;;;;;;;;;;;;;;;;;
2022/03/24 04:22:16;;;;;;;19.08;13.38;;;;;;;;;;5005152;28;20113;-57
2022/03/24 04:25:07;;;;;;;19.42;12.80;;;;;;;;;;4986537;28;20042;-58
2022/03/24 04:31:02;;;;;;;18.58;12.57;;;;;;;;;;5025924;28;20051;-58
2022/03/24 04:33:46;;;;;;;23.58;14.73;;;;;;;;;;5095821;28;20119;-57
2022/03/24 04:36:33;;;;;;;19.92;13.38;;;;;;;;;;5095177;28;20065;-58
2022/03/24 04:39:01;;;;;;;18.75;13.25;;;;;;;;;;5093862;28;20078;-57
2022/03/24 04:45:13;;;;;;;15.45;12.20;;;;;;;;;;5013034;28;20041;-58
2022/03/24 04:48:38;;;;;;;;;;;;;;;;;;;;;
2022/03/24 04:51:10;;;;;;;18.45;12.55;;;;;;;;;;5063721;28;20488;-57
2022/03/24 04:56:44;;;;;;;17.55;12.68;;;;;;;;;;5032457;28;20088;-58
2022/03/24 04:59:46;;;;;;;17.13;12.90;;;;;;;;;;5033252;28;20037;-57
2022/03/24 05:02:33;;;;;;;17.08;13.85;;;;;;;;;;5032179;28;20049;-58
2022/03/24 05:05:08;;;;;;;18.15;13.88;;;;;;;;;;5032326;28;20536;-58
2022/03/24 05:08:00;;;;;;;20.98;12.52;;;;;;;;;;5032107;28;20026;-58
2022/03/24 05:10:31;;;;;;;16.08;13.30;;;;;;;;;;5031953;28;20503;-57
2022/03/24 05:13:10;;;;;;;23.20;12.88;;;;;;;;;;5031172;28;20037;-57
2022/03/24 05:19:03;;;;;;;19.67;12.05;;;;;;;;;;5032730;28;20531;-58
2022/03/24 05:21:43;;;;;;;16.67;12.52;;;;;;;;;;4996877;28;20479;-57
2022/03/24 05:24:28;;;;;;;16.42;12.68;;;;;;;;;;5050693;28;20544;-57
2022/03/24 05:33:39;;;;;;;18.05;11.07;;;;;;;;;;5095126;28;20099;-57
2022/03/24 05:39:19;;;;;;;18.48;12.80;;;;;;;;;;5095132;28;20501;-58
2022/03/24 05:42:15;;;;;;;21.38;12.35;;;;;;;;;;5101696;28;20028;-57
2022/03/24 05:44:58;;;;;;;21.23;13.25;;;;;;;;;;5093869;28;20016;-57
2022/03/24 05:47:50;;;;;;;17.08;11.95;;;;;;;;;;5075149;28;20055;-58
2022/03/24 05:50:44;;;;;;;19.38;12.82;;;;;;;;;;5094375;28;20032;-58
2022/03/24 05:53:13;;;;;;;16.65;13.15;;;;;;;;;;5075939;28;20119;-57
2022/03/24 05:58:41;;;;;;;17.02;12.27;;;;;;;;;;5084976;28;20165;-57
2022/03/24 06:04:18;;;;;;;16.63;11.63;;;;;;;;;;5062138;28;20045;-58
2022/03/24 06:07:03;;;;;;;20.13;13.50;;;;;;;;;;5094684;28;20038;-58
2022/03/24 06:10:08;;;;;;;;;;;;;;;;;;;;;
2022/03/24 06:13:17;;;;;;;18.30;13.55;;;;;;;;;;5093511;28;20382;-58
2022/03/24 06:19:09;;;;;;;16.52;14.43;;;;;;;;;;5093794;28;20032;-58
2022/03/24 06:21:41;;;;;;;15.75;12.95;;;;;;;;;;5055352;28;20056;-57
2022/03/24 06:24:16;;;;;;;20.90;13.30;;;;;;;;;;5037128;28;20033;-57
2022/03/24 06:26:59;;;;;;;19.55;16.15;;;;;;;;;;5055375;28;20048;-57
2022/03/24 06:30:07;;;;;;;;;;;;;;;;;;;;;
2022/03/24 06:32:46;;;;;;;20.02;13.75;;;;;;;;;;5042700;28;20033;-57
2022/03/24 06:41:42;;;;;;;22.27;14.05;;;;;;;;;;4937818;29;20179;-57
2022/03/24 06:44:29;;;;;;;15.63;12.80;;;;;;;;;;4937439;29;20123;-58
2022/03/24 06:47:21;;;;;;;22.30;13.40;;;;;;;;;;4989570;28;20039;-58
2022/03/24 06:50:13;;;;;;;25.92;15.27;;;;;;;;;;5055345;28;20029;-58
2022/03/24 06:59:15;;;;;;;24.40;14.57;;;;;;;;;;5058298;28;20024;-58
2022/03/24 07:02:06;;;;;;;22.65;15.90;;;;;;;;;;5078281;28;20040;-58
2022/03/24 07:04:50;;;;;;;19.55;14.95;;;;;;;;;;5084731;28;20032;-58
2022/03/24 07:07:49;;;;;;;26.08;16.38;;;;;;;;;;5078388;28;20024;-58
2022/03/24 07:10:36;;;;;;;22.33;14.98;;;;;;;;;;5093641;28;20482;-57
2022/03/24 07:13:12;;;;;;;18.67;13.23;;;;;;;;;;5097280;28;20031;-58
2022/03/24 07:15:58;;;;;;;;;;;;;;;;;;;;;
2022/03/24 07:22:13;;;;;;;21.83;14.90;;;;;;;;;;5015101;28;20117;-58
2022/03/24 07:24:59;;;;;;;21.50;15.50;;;;;;;;;;5003895;28;20063;-58
2022/03/24 07:27:55;;;;;;;24.40;14.82;;;;;;;;;;5014509;28;20160;-58
2022/03/24 07:30:50;;;;;;;27.38;15.45;;;;;;;;;;5014841;28;20096;-57
2022/03/24 07:33:31;;;;;;;26.45;16.85;;;;;;;;;;5013412;28;20555;-58
2022/03/24 07:36:28;;;;;;;;;;;;;;;;;;;;;
2022/03/24 07:42:42;;;;;;;25.48;16.23;;;;;;;;;;5053883;28;20035;-58
2022/03/24 07:45:18;;;;;;;19.80;15.50;;;;;;;;;;5047462;28;20530;-58
2022/03/24 07:51:15;;;;;;;21.83;16.92;;;;;;;;;;5087422;28;20042;-58
2022/03/24 07:54:07;;;;;;;23.17;15.57;;;;;;;;;;5077660;28;20038;-58
2022/03/24 07:56:43;;;;;;;21.17;16.08;;;;;;;;;;5077545;28;20051;-56
2022/03/24 08:02:07;;;;;;;22.85;15.27;;;;;;;;;;5103564;28;20044;-58
2022/03/24 08:05:29;;;;;;;21.13;15.80;;;;;;;;;;5091097;28;20040;-58
2022/03/24 08:08:20;;;;;;;20.42;16.52;;;;;;;;;;5094394;28;20047;-58
2022/03/24 08:13:58;;;;;;;22.10;15.85;;;;;;;;;;5073408;28;20031;-57
2022/03/24 08:16:49;;;;;;;23.02;15.43;;;;;;;;;;5073072;28;20045;-58
2022/03/24 08:20:02;;;;;;;25.15;14.40;;;;;;;;;;5073294;28;20024;-58
2022/03/24 08:22:43;;;;;;;;;;;;;;;;;;;;;
2022/03/24 08:25:25;;;;;;;21.13;17.00;;;;;;;;;;5073381;28;20336;-58
2022/03/24 08:28:02;;;;;;;18.80;16.00;;;;;;;;;;5073118;28;20094;-58
2022/03/24 08:30:45;;;;;;;26.70;15.90;;;;;;;;;;5061891;28;20074;-58
2022/03/24 08:39:21;;;;;;;;;;;;;;;;;;;;;
2022/03/24 08:44:56;;;;;;;23.77;15.73;;;;;;;;;;5026483;28;20028;-58
2022/03/24 08:50:38;;;;;;;19.52;16.45;;;;;;;;;;5095003;28;20105;-58
2022/03/24 08:56:30;;;;;;;26.73;17.77;;;;;;;;;;5049436;28;20062;-58
2022/03/24 08:59:04;;;;;;;26.27;16.38;;;;;;;;;;5095213;28;20016;-58
2022/03/24 09:04:48;;;;;;;23.48;18.15;;;;;;;;;;5074722;28;20045;-58
2022/03/24 09:07:35;;;;;;;21.33;17.03;;;;;;;;;;5074203;28;20112;-58
2022/03/24 09:10:07;;;;;;;25.02;17.25;;;;;;;;;;5056190;28;20073;-58
2022/03/24 09:13:17;;;;;;;;;;;;;;;;;;;;;
2022/03/24 09:18:50;;;;;;;23.80;16.27;;;;;;;;;;5074205;28;20561;-58
2022/03/24 09:21:16;;;;;;;24.65;16.08;;;;;;;;;;5074964;28;20028;-58
2022/03/24 09:29:48;;;;;;;16.23;13.73;;;;;;;;;;5074526;28;20040;-58
2022/03/24 09:32:59;;;;;;;18.83;14.23;;;;;;;;;;5075114;28;20569;-58
2022/03/24 09:35:57;;;;;;;21.05;15.07;;;;;;;;;;5053107;28;20040;-58
2022/03/24 09:38:51;;;;;;;19.08;15.48;;;;;;;;;;5056058;28;20033;-58
2022/03/24 09:42:08;;;;;;;;;;;;;;;;;;;;;
2022/03/24 09:44:47;;;;;;;17.60;15.02;;;;;;;;;;5072160;28;20107;-58
2022/03/24 09:50:22;;;;;;;24.75;16.50;;;;;;;;;;5057447;28;20494;-58
2022/03/24 09:53:11;;;;;;;17.70;13.90;;;;;;;;;;5074205;28;20028;-58
2022/03/24 09:56:20;;;;;;;;;;;;;;;;;;;;;
2022/03/24 10:01:51;;;;;;;19.15;14.55;;;;;;;;;;5069862;28;20036;-58
2022/03/24 10:04:55;;;;;;;21.15;16.98;;;;;;;;;;5074886;28;20501;-58
2022/03/24 10:07:55;;;;;;;;;;;;;;;;;;;;;
2022/03/24 10:10:47;;;;;;;19.33;13.82;;;;;;;;;;5058128;28;20128;-58
2022/03/24 10:14:32;;;;;;;16.70;14.63;;;;;;;;;;5060763;28;20024;-58
2022/03/24 10:20:26;;;;;;;;;;;;;;;;;;5016269;28;20143;-58
2022/03/24 10:26:10;;;;;;;17.70;14.63;;;;;;;;;;5050589;28;20497;-58
2022/03/24 10:29:17;;;;;;;17.25;14.48;;;;;;;;;;5059433;28;20534;-58
2022/03/24 10:35:42;;;;;;;19.35;14.55;;;;;;;;;;5052751;28;20048;-58
2022/03/24 10:38:47;;;;;;;;;;;;;;;;;;;;;
2022/03/24 10:41:24;;;;;;;18.98;12.88;;;;;;;;;;5075611;28;20394;-58
2022/03/24 10:44:08;;;;;;;;;;;;;;;;;;;;;
2022/03/24 10:46:53;;;;;;;18.98;13.88;;;;;;;;;;5076540;28;20378;-58
2022/03/24 10:49:50;;;;;;;14.65;12.93;;;;;;;;;;5076481;28;20036;-58
2022/03/24 10:52:54;;;;;;;20.45;15.65;;;;;;;;;;5077553;28;20054;-58
2022/03/24 10:55:39;;;;;;;15.05;13.43;;;;;;;;;;5070029;28;20048;-58
2022/03/24 10:58:26;;;;;;;20.50;14.98;;;;;;;;;;5059162;28;20079;-58
2022/03/24 11:01:31;;;;;;;23.42;15.68;;;;;;;;;;5055275;28;20527;-58
2022/03/24 11:04:04;;;;;;;21.05;16.30;;;;;;;;;;5088071;28;20520;-58
2022/03/24 11:06:31;;;;;;;24.30;15.82;;;;;;;;;;5078099;28;20082;-58
2022/03/24 11:09:29;;;;;;;20.20;14.45;;;;;;;;;;5097022;28;20051;-59
2022/03/24 11:12:23;;;;;;;21.23;13.82;;;;;;;;;;5066898;28;20028;-59
2022/03/24 11:15:04;;;;;;;18.50;14.45;;;;;;;;;;5096532;28;20107;-58
2022/03/24 11:17:34;;;;;;;18.02;13.40;;;;;;;;;;5057099;28;20533;-58
2022/03/24 11:20:20;;;;;;;;;;;;;;;;;;;;;
2022/03/24 11:23:06;;;;;;;13.68;12.23;;;;;;;;;;5070979;28;20039;-58
2022/03/24 11:26:04;;;;;;;14.65;12.73;;;;;;;;;;5057195;28;20552;-58
2022/03/24 11:28:55;;;;;;;17.38;11.57;;;;;;;;;;5073150;28;20171;-58
2022/03/24 11:31:28;;;;;;;12.25;10.02;;;;;;;;;;5046134;28;20470;-58
2022/03/24 11:34:09;;;;;;;14.02;10.63;;;;;;;;;;5073845;28;20532;-58
2022/03/24 11:36:51;;;;;;;18.60;10.85;;;;;;;;;;5074203;28;20119;-58
2022/03/24 11:39:20;;;;;;;17.20;13.38;;;;;;;;;;5071452;28;20119;-58
2022/03/24 11:42:20;;;;;;;;;;;;;;;;;;;;;
2022/03/24 11:45:12;;;;;;;;;;;;;;;;;;;;;
2022/03/24 11:48:14;;;;;;;11.73;9.55;;;;;;;;;;5078019;28;20036;-58
2022/03/24 11:51:35;;;;;;;16.92;13.52;;;;;;;;;;5077829;28;20033;-58
2022/03/24 11:54:56;;;;;;;;;;;;;;;;;;;;;
2022/03/24 11:57:50;;;;;;;;;;;;;;;;;;;;;
2022/03/24 12:00:36;;;;;;;16.40;13.05;;;;;;;;;;5093517;28;20106;-58
2022/03/24 12:03:20;;;;;;;19.10;12.20;;;;;;;;;;5094749;28;20523;-59
2022/03/24 12:09:07;;;;;;;15.55;12.02;;;;;;;;;;5087243;28;20020;-59
2022/03/24 12:15:04;;;;;;;14.60;12.10;;;;;;;;;;5096364;28;20119;-59
2022/03/24 12:18:00;;;;;;;14.23;11.80;;;;;;;;;;5095135;28;20024;-59
2022/03/24 12:24:25;;;;;;;17.00;13.40;;;;;;;;;;5033232;28;20132;-58
2022/03/24 12:30:08;;;;;;;16.33;13.13;;;;;;;;;;5095565;28;20386;-58
2022/03/24 12:35:51;;;;;;;18.52;11.05;;;;;;;;;;5066178;28;20040;-59
2022/03/24 12:41:09;;;;;;;11.63;9.52;;;;;;;;;;5080524;28;20024;-59
2022/03/24 12:44:01;;;;;;;;;;;;;;;;;;;;;
2022/03/24 12:46:49;;;;;;;11.65;9.77;;;;;;;;;;5090896;28;20119;-58
2022/03/24 12:49:39;;;;;;;11.80;10.52;;;;;;;;;;5095438;28;20048;-59
2022/03/24 12:52:32;;;;;;;;;;;;;;;;;;;;;
2022/03/24 12:55:15;;;;;;;12.38;10.18;;;;;;;;;;5096176;28;20115;-58
2022/03/24 13:01:26;;;;;;;10.10;9.10;;;;;;;;;;5063377;28;20031;-59
2022/03/24 13:04:34;;;;;;;17.38;10.10;;;;;;;;;;5074695;28;20044;-58
2022/03/24 13:07:35;;;;;;;12.85;10.48;;;;;;;;;;5094478;28;20393;-58
2022/03/24 13:13:24;;;;;;;12.48;10.68;;;;;;;;;;5056036;28;20039;-59
2022/03/24 13:15:56;;;;;;;13.85;10.65;;;;;;;;;;5094405;28;20032;-58
2022/03/24 13:18:40;;;;;;;12.88;10.30;;;;;;;;;;5095236;28;20028;-59
2022/03/24 13:21:29;;;;;;;14.82;9.80;;;;;;;;;;5076153;28;20043;-59
2022/03/24 13:24:25;;;;;;;43.40;18.77;;;;;;;;;;5094590;28;20474;-58
2022/03/24 13:27:25;;;;;;;18.95;11.07;;;;;;;;;;5069111;28;20035;-58
2022/03/24 13:30:04;;;;;;;18.40;11.45;;;;;;;;;;5093831;28;20066;-58
2022/03/24 13:32:41;;;;;;;16.67;12.00;;;;;;;;;;5074472;28;20489;-59
2022/03/24 13:35:18;;;;;;;;;;;;;;;;;;;;;
2022/03/24 13:38:05;;;;;;;11.23;9.75;;;;;;;;;;5094163;28;20384;-59
2022/03/24 13:40:49;;;;;;;12.80;9.57;;;;;;;;;;5061944;28;20552;-58
2022/03/24 13:43:35;;;;;;;13.95;11.25;;;;;;;;;;5086471;28;20496;-59
2022/03/24 13:46:18;;;;;;;12.90;11.55;;;;;;;;;;5094519;28;20474;-59
2022/03/24 13:49:06;;;;;;;12.07;8.88;;;;;;;;;;5093168;28;20078;-58
2022/03/24 13:51:47;;;;;;;24.45;12.23;;;;;;;;;;5076557;28;20470;-58
2022/03/24 13:54:25;;;;;;;16.83;10.02;;;;;;;;;;5087621;28;20036;-58
2022/03/24 13:57:00;;;;;;;14.10;9.40;;;;;;;;;;5094664;28;20366;-59
2022/03/24 14:00:07;;;;;;;13.20;11.02;;;;;;;;;;5094666;28;20016;-58
2022/03/24 14:02:46;;;;;;;13.00;10.95;;;;;;;;;;5073610;28;20115;-58
2022/03/24 14:14:24;;;;;;;15.32;9.85;;;;;;;;;;5062146;28;20032;-58
2022/03/24 14:23:06;;;;;;;12.23;10.13;;;;;;;;;;5094027;28;20031;-58
2022/03/24 14:25:51;;;;;;;10.95;9.23;;;;;;;;;;5075422;28;20501;-59
2022/03/24 14:28:36;;;;;;;14.27;10.02;;;;;;;;;;5076230;28;20500;-58
2022/03/24 14:31:21;;;;;;;14.48;10.82;;;;;;;;;;5093562;28;20111;-58
2022/03/24 14:37:33;;;;;;;11.77;9.95;;;;;;;;;;5061598;28;20033;-59
2022/03/24 14:40:09;;;;;;;16.88;10.57;;;;;;;;;;5049678;28;20508;-59
2022/03/24 14:43:00;;;;;;;16.25;10.70;;;;;;;;;;5098313;28;20020;-59
2022/03/24 14:45:41;;;;;;;11.23;9.05;;;;;;;;;;5097904;28;20062;-58
2022/03/24 14:48:17;;;;;;;12.60;10.73;;;;;;;;;;5079244;28;20470;-58
2022/03/24 14:51:04;;;;;;;19.70;10.82;;;;;;;;;;5096080;28;20573;-58
2022/03/24 14:54:08;;;;;;;13.48;10.90;;;;;;;;;;5098598;28;20020;-59
2022/03/24 14:59:35;;;;;;;;;;;;;;;;;;5097714;28;20034;-59
2022/03/24 15:02:27;;;;;;;14.70;10.05;;;;;;;;;;5098055;28;20055;-59
2022/03/24 15:05:03;;;;;;;13.05;10.57;;;;;;;;;;5096460;28;20044;-58
2022/03/24 15:11:37;;;;;;;13.77;10.30;;;;;;;;;;5014593;28;20036;-59
2022/03/24 15:16:02;;;;;;;12.25;9.32;;;;;;;;;;5010247;28;20456;-59
2022/03/24 15:16:34;;;;;;;17.60;9.88;;;;;;;;;;4998536;28;20113;-59
2022/03/24 15:19:09;;;;;;;12.20;9.27;;;;;;;;;;5014977;28;20472;-59
2022/03/24 15:21:52;;;;;;;14.02;9.40;;;;;;;;;;5021344;28;20060;-58
2022/03/24 15:24:24;;;;;;;14.05;9.68;;;;;;;;;;5001617;28;20034;-59
2022/03/24 15:26:56;;;;;;;12.85;9.82;;;;;;;;;;5014036;28;20034;-58
2022/03/24 15:29:44;;;;;;;;;;;;;;;;;;;;;
2022/03/24 15:35:26;;;;;;;14.00;9.98;;;;;;;;;;5084239;28;20111;-59
2022/03/24 15:38:09;;;;;;;12.50;10.45;;;;;;;;;;5096433;28;20025;-59
2022/03/24 15:40:52;;;;;;;14.43;10.43;;;;;;;;;;5096216;28;20030;-58
2022/03/24 15:46:48;;;;;;;11.23;10.10;;;;;;;;;;5032956;28;20050;-58
2022/03/24 15:52:52;;;;;;;13.27;9.85;;;;;;;;;;4973145;28;20039;-59
2022/03/24 15:58:39;;;;;;;16.38;10.50;;;;;;;;;;4993605;28;20045;-59
2022/03/24 16:01:21;;;;;;;11.75;9.68;;;;;;;;;;4994132;28;20366;-58
2022/03/24 16:04:13;;;;;;;;;;;;;;;;;;;;;
2022/03/24 16:09:50;;;;;;;14.18;10.38;;;;;;;;;;4976209;28;20050;-58
2022/03/24 16:15:22;;;;;;;12.38;8.68;;;;;;;;;;4991402;28;20138;-58
2022/03/24 16:18:26;;;;;;;12.15;9.30;;;;;;;;;;4993220;28;20440;-58
2022/03/24 16:21:05;;;;;;;11.90;9.25;;;;;;;;;;5061633;28;20059;-58
2022/03/24 16:24:12;;;;;;;12.40;9.55;;;;;;;;;;5095575;28;20052;-60
2022/03/24 16:27:03;;;;;;;14.18;9.80;;;;;;;;;;5052623;28;20549;-58
2022/03/24 16:29:49;;;;;;;12.70;8.75;;;;;;;;;;5095481;28;20110;-58
2022/03/24 16:32:31;;;;;;;10.95;8.75;;;;;;;;;;5066053;28;20486;-58
2022/03/24 16:35:21;;;;;;;9.68;8.68;;;;;;;;;;5093972;28;20031;-58
2022/03/24 16:37:50;;;;;;;10.82;8.60;;;;;;;;;;5096042;28;20056;-58
2022/03/24 16:40:53;;;;;;;11.52;9.30;;;;;;;;;;5094871;28;20447;-58
2022/03/24 16:43:38;;;;;;;12.35;10.07;;;;;;;;;;5095775;28;20070;-58
2022/03/24 16:49:13;;;;;;;13.05;10.30;;;;;;;;;;5083968;28;20020;-58
2022/03/24 16:52:06;;;;;;;14.80;9.23;;;;;;;;;;5095373;28;20031;-58
2022/03/24 16:54:53;;;;;;;19.77;9.35;;;;;;;;;;5076534;28;20032;-58
2022/03/24 16:57:35;;;;;;;10.82;8.18;;;;;;;;;;5075039;28;20039;-58
2022/03/24 17:03:22;;;;;;;11.75;9.75;;;;;;;;;;5094717;28;20458;-58
2022/03/24 17:06:09;;;;;;;13.18;8.98;;;;;;;;;;5093021;28;20490;-57
2022/03/24 17:09:01;;;;;;;11.45;8.13;;;;;;;;;;5094143;28;20557;-58
2022/03/24 17:11:58;;;;;;;11.13;9.13;;;;;;;;;;5093979;28;20032;-58
2022/03/24 17:15:02;;;;;;;9.38;8.00;;;;;;;;;;5094966;28;20419;-59
2022/03/24 17:17:39;;;;;;;10.85;8.80;;;;;;;;;;5093858;28;20032;-58
2022/03/24 17:20:13;;;;;;;11.55;8.48;;;;;;;;;;5095873;28;20027;-58
2022/03/24 17:29:08;;;;;;;12.23;8.20;;;;;;;;;;5094691;28;20077;-58
2022/03/24 17:34:41;;;;;;;10.07;7.50;;;;;;;;;;5052921;28;20050;-58
2022/03/24 17:37:34;;;;;;;16.17;8.00;;;;;;;;;;5094968;28;20430;-58
2022/03/24 17:40:37;;;;;;;10.00;7.65;;;;;;;;;;5095138;28;20016;-58
2022/03/24 17:43:29;;;;;;;;;;;;;;;;;;;;;
2022/03/24 17:46:08;;;;;;;10.48;8.10;;;;;;;;;;5094506;28;20825;-58
2022/03/24 17:48:56;;;;;;;13.50;8.30;;;;;;;;;;5079663;28;20027;-58
2022/03/24 17:51:43;;;;;;;11.63;8.38;;;;;;;;;;5099469;28;20065;-58
2022/03/24 17:57:14;;;;;;;10.23;8.20;;;;;;;;;;5089478;28;20036;-58
2022/03/24 17:59:52;;;;;;;;;;;;;;;;;;;;;
2022/03/24 18:02:59;;;;;;;9.90;7.40;;;;;;;;;;5093929;28;20032;-58
2022/03/24 18:06:13;;;;;;;10.07;8.25;;;;;;;;;;5005551;28;20057;-58
2022/03/24 18:09:14;;;;;;;10.63;7.88;;;;;;;;;;5001767;28;20411;-58
2022/03/24 18:14:50;;;;;;;10.98;7.63;;;;;;;;;;5038067;28;20036;-58
2022/03/24 18:17:17;;;;;;;12.32;7.88;;;;;;;;;;5077078;28;20457;-58
2022/03/24 18:19:58;;;;;;;10.18;8.48;;;;;;;;;;5070367;28;20071;-58
2022/03/24 18:22:51;;;;;;;10.35;8.23;;;;;;;;;;5077738;28;20020;-58
2022/03/24 18:25:21;;;;;;;13.07;8.98;;;;;;;;;;5068551;28;20451;-58
2022/03/24 18:28:13;;;;;;;10.23;8.15;;;;;;;;;;5077833;28;20358;-58
2022/03/24 18:30:49;;;;;;;12.90;9.10;;;;;;;;;;5076831;28;20458;-58
2022/03/24 18:33:21;;;;;;;11.02;8.63;;;;;;;;;;5074548;28;20032;-58
2022/03/24 18:36:02;;;;;;;9.43;8.40;;;;;;;;;;5072420;28;20391;-58
2022/03/24 18:38:45;;;;;;;12.38;7.57;;;;;;;;;;5075928;28;20479;-58
2022/03/24 18:41:34;;;;;;;15.35;9.63;;;;;;;;;;5077249;28;20020;-58
2022/03/24 18:44:29;;;;;;;10.23;8.35;;;;;;;;;;5077636;28;20402;-58
2022/03/24 18:47:16;;;;;;;12.40;9.40;;;;;;;;;;5050379;28;20047;-58
2022/03/24 18:53:05;;;;;;;;;;;;;;;;;;;;;
2022/03/24 18:59:16;;;;;;;10.68;8.93;;;;;;;;;;5014779;28;20125;-57
2022/03/24 19:02:02;;;;;;;13.52;9.48;;;;;;;;;;5005547;28;20025;-57
2022/03/24 19:08:03;;;;;;;11.27;9.40;;;;;;;;;;5070568;28;20124;-58
2022/03/24 19:10:58;;;;;;;14.45;10.02;;;;;;;;;;5097527;28;20040;-57
2022/03/24 19:13:27;;;;;;;17.23;9.98;;;;;;;;;;5096149;28;20479;-57
2022/03/24 19:16:17;;;;;;;18.27;10.18;;;;;;;;;;5097515;28;20067;-57
2022/03/24 19:19:28;;;;;;;11.57;9.70;;;;;;;;;;5079359;28;20467;-57
2022/03/24 19:22:18;;;;;;;15.98;11.73;;;;;;;;;;5095450;28;20032;-57
2022/03/24 19:24:54;;;;;;;14.88;10.50;;;;;;;;;;5078400;28;20432;-57
2022/03/24 19:30:58;;;;;;;17.13;11.65;;;;;;;;;;5096469;28;20027;-57
2022/03/24 19:33:55;;;;;;;;;;;;;;;;;;;;;
2022/03/24 19:39:30;;;;;;;13.70;9.55;;;;;;;;;;5084427;28;20363;-57
2022/03/24 19:48:19;;;;;;;16.83;11.98;;;;;;;;;;5009937;28;20356;-57
2022/03/24 19:50:52;;;;;;;15.70;12.18;;;;;;;;;;5000628;28;20475;-57
2022/03/24 19:56:19;;;;;;;15.57;12.05;;;;;;;;;;5014082;28;20041;-57
2022/03/24 19:58:55;;;;;;;16.45;12.77;;;;;;;;;;5013659;28;20536;-57
2022/03/24 20:01:47;;;;;;;16.63;12.10;;;;;;;;;;5029865;28;20061;-57
2022/03/24 20:10:37;;;;;;;14.63;10.80;;;;;;;;;;5101550;28;20531;-57
2022/03/24 20:13:20;;;;;;;14.68;11.68;;;;;;;;;;5085831;28;20047;-56
2022/03/24 20:16:01;;;;;;;19.77;12.10;;;;;;;;;;5088732;28;20056;-57
2022/03/24 20:18:40;;;;;;;17.50;12.13;;;;;;;;;;5076523;28;20085;-57
2022/03/24 20:24:51;;;;;;;16.40;12.50;;;;;;;;;;5096177;28;20054;-56
2022/03/24 20:27:39;;;;;;;15.23;11.23;;;;;;;;;;5052628;28;20087;-56
2022/03/24 20:33:23;;;;;;;;;;;;;;;;;;;;;
2022/03/24 20:36:05;;;;;;;19.77;12.30;;;;;;;;;;5052909;28;20390;-57
2022/03/24 20:38:50;;;;;;;15.48;12.07;;;;;;;;;;5095075;28;20032;-57
2022/03/24 20:41:26;;;;;;;18.52;12.80;;;;;;;;;;5075804;28;20494;-57
2022/03/24 20:44:21;;;;;;;15.85;12.82;;;;;;;;;;5095247;28;20054;-57
2022/03/24 20:46:58;;;;;;;15.23;11.57;;;;;;;;;;5074807;28;20040;-57
2022/03/24 21:01:39;;;;;;;18.20;13.35;;;;;;;;;;5048764;28;20048;-57
2022/03/24 21:04:24;;;;;;;;;;;;;;;;;;;;;
2022/03/24 21:07:34;;;;;;;;;;;;;;;;;;;;;
2022/03/24 21:10:17;;;;;;;16.42;12.80;;;;;;;;;;5018335;28;20045;-58
2022/03/24 21:16:18;;;;;;;17.85;12.13;;;;;;;;;;5056398;28;20042;-57
